createdAt,value
2023-05-22T00:01:06.830Z,50.03
2023-05-22T00:06:11.994Z,50.24
2023-05-22T00:11:16.404Z,50.58
2023-05-22T00:16:21.682Z,50.76
2023-05-22T00:21:24.998Z,51.09
2023-05-22T00:26:30.171Z,51.51
2023-05-22T00:31:33.061Z,51.96
2023-05-22T00:36:39.183Z,52.45
2023-05-22T00:41:47.063Z,52.58
2023-05-22T00:46:53.515Z,52.95
2023-05-22T00:51:58.758Z,53.21
2023-05-22T00:57:03.147Z,53.74
2023-05-22T01:02:06.018Z,54.20
2023-05-22T01:07:09.109Z,54.12
2023-05-22T01:12:23.039Z,54.04
2023-05-22T01:17:38.733Z,54.65
2023-05-22T01:23:20.418Z,55.15
2023-05-22T01:28:44.894Z,55.74
2023-05-22T01:33:55.466Z,55.91
2023-05-22T01:39:06.311Z,56.15
2023-05-22T01:44:11.488Z,56.44
2023-05-22T01:49:14.716Z,56.38
2023-05-22T01:54:46.723Z,56.54
2023-05-22T01:59:59.057Z,57.09
2023-05-22T02:05:09.765Z,57.46
2023-05-22T02:10:17.583Z,57.60
2023-05-22T02:15:21.317Z,57.49
2023-05-22T02:20:24.445Z,58.04
2023-05-22T02:25:27.505Z,58.24
2023-05-22T02:30:35.060Z,58.81
2023-05-22T02:35:37.880Z,58.83
2023-05-22T02:40:40.917Z,58.81
2023-05-22T02:45:47.870Z,58.89
2023-05-22T02:50:50.546Z,59.44
2023-05-22T02:55:53.210Z,59.65
2023-05-22T03:00:56.233Z,60.04
2023-05-22T03:05:58.948Z,60.08
2023-05-22T03:11:04.059Z,59.63
2023-05-22T03:16:08.570Z,59.43
2023-05-22T03:21:11.532Z,59.38
2023-05-22T03:26:14.170Z,58.87
2023-05-22T03:31:17.952Z,58.00
2023-05-22T03:36:24.032Z,57.76
2023-05-22T03:41:28.074Z,57.99
2023-05-22T03:46:31.105Z,57.78
2023-05-22T03:51:33.916Z,57.58
2023-05-22T03:56:37.242Z,57.12
2023-05-22T04:01:42.177Z,56.06
2023-05-22T04:06:45.428Z,55.16
2023-05-22T04:11:50.673Z,53.65
2023-05-22T04:16:56.484Z,52.42
2023-05-22T04:22:04.348Z,51.58
2023-05-22T04:27:07.930Z,50.55
2023-05-22T04:32:11.637Z,50.74
2023-05-22T04:37:18.355Z,50.22
2023-05-22T04:42:22.629Z,49.46
2023-05-22T04:47:31.934Z,48.83
2023-05-22T04:52:35.052Z,48.61
2023-05-22T04:57:41.101Z,47.96
2023-05-22T05:02:43.936Z,47.29
2023-05-22T05:07:50.188Z,46.83
2023-05-22T05:12:55.326Z,46.50
2023-05-22T05:17:58.094Z,46.13
2023-05-22T05:23:03.454Z,45.93
2023-05-22T05:28:11.921Z,45.87
2023-05-22T05:33:15.574Z,45.81
2023-05-22T05:38:21.683Z,45.83
2023-05-22T05:43:27.267Z,45.63
2023-05-22T05:48:30.073Z,45.21
2023-05-22T05:53:34.005Z,44.94
2023-05-22T05:58:36.795Z,44.81
2023-05-22T06:03:39.614Z,44.77
2023-05-22T06:08:44.790Z,44.74
2023-05-22T06:13:47.574Z,44.67
2023-05-22T06:18:52.570Z,44.57
2023-05-22T06:23:55.706Z,44.56
2023-05-22T06:28:58.425Z,44.60
2023-05-22T06:34:04.260Z,44.67
2023-05-22T06:39:08.715Z,44.80
2023-05-22T06:44:12.341Z,44.84
2023-05-22T06:49:16.852Z,44.63
2023-05-22T06:54:37.549Z,44.28
2023-05-22T06:59:40.215Z,43.78
2023-05-22T07:04:42.958Z,43.34
2023-05-22T07:09:47.919Z,42.35
2023-05-22T07:14:51.034Z,41.85
2023-05-22T07:19:56.903Z,41.02
2023-05-22T07:25:02.681Z,40.21
2023-05-22T07:30:10.430Z,38.68
2023-05-22T07:35:15.298Z,37.58
2023-05-22T07:40:20.557Z,37.32
2023-05-22T07:45:23.209Z,36.74
2023-05-22T07:50:27.064Z,36.81
2023-05-22T07:55:30.327Z,36.52
2023-05-22T08:00:35.657Z,35.90
2023-05-22T08:05:39.372Z,34.90
2023-05-22T08:10:58.188Z,34.25
2023-05-22T08:16:08.983Z,33.58
2023-05-22T08:21:15.451Z,32.42
2023-05-22T08:26:21.003Z,31.61
2023-05-22T08:31:24.976Z,30.55
2023-05-22T08:36:34.468Z,29.73
2023-05-22T08:41:38.637Z,28.77
2023-05-22T08:46:45.540Z,28.34
2023-05-22T08:52:12.479Z,26.28
2023-05-22T08:57:16.292Z,25.56
2023-05-22T09:02:23.009Z,25.76
2023-05-22T09:07:29.950Z,25.55
2023-05-22T09:12:33.417Z,25.41
2023-05-22T09:17:43.433Z,25.16
2023-05-22T09:22:50.442Z,25.24
2023-05-22T09:27:55.030Z,24.95
2023-05-22T09:32:59.826Z,24.22
2023-05-22T09:38:03.862Z,24.16
2023-05-22T09:43:18.010Z,24.52
2023-05-22T09:48:21.007Z,24.50
2023-05-22T09:53:31.721Z,24.50
2023-05-22T10:04:14.491Z,23.91
2023-05-22T10:09:31.378Z,23.38
2023-05-22T10:14:36.681Z,23.80
2023-05-22T10:19:47.071Z,24.19
2023-05-22T10:24:52.919Z,24.62
2023-05-22T10:30:08.796Z,24.80
2023-05-22T10:35:26.194Z,24.83
2023-05-22T10:40:40.634Z,25.01
2023-05-22T10:45:47.879Z,25.37
2023-05-22T10:50:54.409Z,25.63
2023-05-22T10:56:02.568Z,25.77
2023-05-22T11:01:20.492Z,26.00
2023-05-22T11:07:04.044Z,26.28
2023-05-22T11:12:37.470Z,26.51
2023-05-22T11:17:51.884Z,26.50
2023-05-22T11:23:07.034Z,26.31
2023-05-22T11:28:12.024Z,26.36
2023-05-22T11:33:15.153Z,26.55
2023-05-22T11:38:22.072Z,26.57
2023-05-22T11:43:36.400Z,26.65
2023-05-22T11:48:42.583Z,26.93
2023-05-22T11:53:46.680Z,27.07
2023-05-22T11:58:51.923Z,26.95
2023-05-22T12:03:57.492Z,27.00
2023-05-22T12:09:01.610Z,27.17
2023-05-22T12:14:04.920Z,27.10
2023-05-22T12:19:12.077Z,27.08
2023-05-22T12:24:14.964Z,26.90
2023-05-22T12:29:18.474Z,26.74
2023-05-22T12:34:21.489Z,26.71
2023-05-22T12:39:24.264Z,26.80
2023-05-22T12:44:27.492Z,26.80
2023-05-22T12:49:30.168Z,26.77
2023-05-22T12:54:37.340Z,26.82
2023-05-22T12:59:41.280Z,27.03
2023-05-22T13:04:43.935Z,27.16
2023-05-22T13:09:46.597Z,27.26
2023-05-22T13:14:49.466Z,27.53
2023-05-22T13:19:56.047Z,27.82
2023-05-22T13:25:01.055Z,27.92
2023-05-22T13:30:05.472Z,27.95
2023-05-22T13:35:11.515Z,28.07
2023-05-22T13:40:18.552Z,28.10
2023-05-22T13:45:21.508Z,27.99
2023-05-22T13:50:24.261Z,27.90
2023-05-22T13:55:29.787Z,27.72
2023-05-22T14:00:37.668Z,27.61
2023-05-22T14:05:44.431Z,27.64
2023-05-22T14:10:47.279Z,27.62
2023-05-22T14:15:52.983Z,27.56
2023-05-22T14:20:55.621Z,27.59
2023-05-22T14:25:58.262Z,27.61
2023-05-22T14:31:01.355Z,27.72
2023-05-22T14:36:07.402Z,27.74
2023-05-22T14:41:10.729Z,27.94
2023-05-22T14:46:16.185Z,28.09
2023-05-22T14:51:22.242Z,28.08
2023-05-22T14:56:25.581Z,28.10
2023-05-22T15:01:28.477Z,28.08
2023-05-22T15:06:31.265Z,28.22
2023-05-22T15:11:34.108Z,28.06
2023-05-22T15:16:38.400Z,28.11
2023-05-22T15:21:44.448Z,28.19
2023-05-22T15:26:47.054Z,28.35
2023-05-22T15:31:49.800Z,28.50
2023-05-22T15:36:53.790Z,28.43
2023-05-22T15:42:05.727Z,28.47
2023-05-22T15:47:09.701Z,28.43
2023-05-22T15:52:14.453Z,28.50
2023-05-22T15:57:17.694Z,28.52
2023-05-22T16:02:20.788Z,28.66
2023-05-22T16:07:23.615Z,28.70
2023-05-22T16:12:26.735Z,28.83
2023-05-22T16:17:34.153Z,28.99
2023-05-22T16:22:48.116Z,29.09
2023-05-22T16:27:52.173Z,29.31
2023-05-22T16:32:56.885Z,29.45
2023-05-22T16:38:02.262Z,29.69
2023-05-22T16:43:13.313Z,29.85
2023-05-22T16:48:16.457Z,30.08
2023-05-22T16:53:19.900Z,30.41
2023-05-22T16:58:28.986Z,30.74
2023-05-22T17:03:35.543Z,30.82
2023-05-22T17:08:38.432Z,31.15
2023-05-22T17:13:41.429Z,31.58
2023-05-22T17:18:44.172Z,31.94
2023-05-22T17:23:48.016Z,32.44
2023-05-22T17:28:50.696Z,32.63
2023-05-22T17:33:53.656Z,32.74
2023-05-22T17:38:59.580Z,33.17
2023-05-22T17:44:05.115Z,33.60
2023-05-22T17:49:08.078Z,33.85
2023-05-22T17:54:16.019Z,34.23
2023-05-22T17:59:19.254Z,34.49
2023-05-22T18:04:23.555Z,34.76
2023-05-22T18:09:27.671Z,35.18
2023-05-22T18:14:30.398Z,35.51
2023-05-22T18:19:33.170Z,35.71
2023-05-22T18:24:38.173Z,35.94
2023-05-22T18:29:42.910Z,36.17
2023-05-22T18:34:50.215Z,36.40
2023-05-22T18:39:53.735Z,36.83
2023-05-22T18:45:01.863Z,37.10
2023-05-22T18:50:07.398Z,37.47
2023-05-22T18:55:12.700Z,37.76
2023-05-22T19:00:19.630Z,37.99
2023-05-22T19:05:22.603Z,38.25
2023-05-22T19:30:28.913Z,40.69
2023-05-22T19:35:32.069Z,40.81
2023-05-22T19:40:37.333Z,40.76
2023-05-22T19:45:41.713Z,41.12
2023-05-22T19:50:47.660Z,41.31
2023-05-22T19:55:50.650Z,41.60
2023-05-22T20:00:54.603Z,41.83
2023-05-22T20:05:58.202Z,42.05
2023-05-22T20:11:01.708Z,42.30
2023-05-22T20:16:11.797Z,42.69
2023-05-22T20:21:17.691Z,42.99
2023-05-22T20:26:21.547Z,43.26
2023-05-22T20:31:24.693Z,43.53
2023-05-22T20:36:28.086Z,43.57
2023-05-22T20:41:31.677Z,43.69
2023-05-22T20:46:34.418Z,43.95
2023-05-22T20:51:39.879Z,44.15
2023-05-22T20:56:45.929Z,44.40
2023-05-22T21:01:50.106Z,44.60
2023-05-22T21:06:54.910Z,44.92
2023-05-22T21:11:57.585Z,45.31
2023-05-22T21:17:00.420Z,45.68
2023-05-22T21:22:03.814Z,45.89
2023-05-22T21:27:06.429Z,46.17
2023-05-22T21:32:13.366Z,46.49
2023-05-22T21:37:16.092Z,46.69
2023-05-22T21:42:19.021Z,46.97
2023-05-22T21:47:22.704Z,47.33
2023-05-22T21:52:27.889Z,47.72
2023-05-22T21:57:34.263Z,48.06
2023-05-22T22:02:39.737Z,48.42
2023-05-22T22:07:47.113Z,48.76
2023-05-22T22:12:52.564Z,48.97
2023-05-22T22:17:59.473Z,49.19
2023-05-22T22:23:02.320Z,49.48
2023-05-22T22:28:07.469Z,50.07
2023-05-22T22:33:15.716Z,50.40
2023-05-22T22:38:21.477Z,50.74
2023-05-22T22:43:26.508Z,51.08
2023-05-22T22:48:29.137Z,51.32
2023-05-22T22:53:31.879Z,51.38
2023-05-22T22:58:34.887Z,51.92
2023-05-22T23:03:37.569Z,52.19
2023-05-22T23:08:41.756Z,52.59
2023-05-22T23:13:48.340Z,52.76
2023-05-22T23:18:51.316Z,53.04
2023-05-22T23:23:54.086Z,53.39
2023-05-22T23:29:01.324Z,53.63
2023-05-22T23:34:05.813Z,53.73
2023-05-22T23:39:09.036Z,53.96
2023-05-22T23:44:12.400Z,54.42
2023-05-22T23:49:15.057Z,54.61
2023-05-22T23:54:18.087Z,55.15
2023-05-22T23:59:21.709Z,55.27
